Time;durP1;ratioP1;P1;durP2;ratioP2;P2;SDS_P1;SDS_P2;PMS_P1;PMS_P2;Temp;Humidity;BMP_temperature;BMP_pressure;BME280_temperature;BME280_humidity;BME280_pressure;Samples;Min_cycle;Max_cycle;Signal;HPM_P1;HPM_P2
2021/10/31 00:00:53;;;;;;;10.57;4.43;;;;;;;-149.78;100.00;50534.03;4981343;28;20074;-66
2021/10/31 00:03:19;;;;;;;9.52;3.67;;;;;;;-149.78;100.00;50545.75;4975999;28;20034;-66
2021/10/31 00:05:45;;;;;;;11.07;4.20;;;;;;;-149.78;100.00;50522.28;4977213;28;20074;-66
2021/10/31 00:08:11;;;;;;;9.50;4.70;;;;;;;-149.78;100.00;50514.47;4975591;28;20046;-66
2021/10/31 00:10:37;;;;;;;11.27;4.65;;;;;;;-149.78;100.00;50530.13;4977649;28;20039;-66
2021/10/31 00:13:04;;;;;;;11.73;4.95;;;;;;;-149.78;100.00;50512.50;4976063;28;20063;-66
2021/10/31 00:15:30;;;;;;;7.20;4.50;;;;;;;-149.78;100.00;50498.81;4975998;28;20038;-66
2021/10/31 00:17:56;;;;;;;9.77;5.13;;;;;;;-149.78;100.00;50510.56;4963182;28;20039;-66
2021/10/31 00:20:21;;;;;;;12.52;5.32;;;;;;;-149.78;100.00;50479.28;4971504;28;20046;-66
2021/10/31 00:22:48;;;;;;;9.88;5.30;;;;;;;-149.78;100.00;50516.44;4968399;28;20049;-65
2021/10/31 00:25:15;;;;;;;10.88;5.38;;;;;;;-149.78;100.00;50496.88;4975220;28;20489;-65
2021/10/31 00:27:41;;;;;;;17.85;4.93;;;;;;;-149.78;100.00;50498.81;4984371;28;20540;-65
2021/10/31 00:30:08;;;;;;;10.98;4.90;;;;;;;-149.78;100.00;50514.47;4965594;28;20070;-65
2021/10/31 00:32:34;;;;;;;14.38;5.20;;;;;;;-149.78;100.00;50502.75;4961491;28;20039;-65
2021/10/31 00:35:01;;;;;;;12.55;5.13;;;;;;;-149.78;100.00;50491.00;4963021;28;20525;-65
2021/10/31 00:37:27;;;;;;;11.90;5.15;;;;;;;-149.78;100.00;50518.38;4975462;28;20042;-65
2021/10/31 00:39:53;;;;;;;11.52;5.00;;;;;;;-149.78;100.00;50516.44;4974874;28;20131;-65
2021/10/31 00:42:20;;;;;;;16.48;6.80;;;;;;;-149.78;100.00;50541.84;4982747;28;20042;-65
2021/10/31 00:44:45;;;;;;;12.65;5.53;;;;;;;-149.78;100.00;50526.22;4968771;28;20042;-65
2021/10/31 00:47:11;;;;;;;11.02;4.93;;;;;;;-149.78;100.00;50537.94;4974704;28;20089;-65
2021/10/31 00:49:37;;;;;;;12.10;5.57;;;;;;;-149.78;100.00;50520.34;4976304;28;20046;-65
2021/10/31 00:52:03;;;;;;;15.05;5.85;;;;;;;-149.78;100.00;50541.84;4984425;28;20042;-65
2021/10/31 00:54:29;;;;;;;21.90;5.90;;;;;;;-149.78;100.00;50506.66;4972962;28;20027;-65
2021/10/31 00:56:56;;;;;;;12.57;5.50;;;;;;;-149.78;100.00;50512.50;4975153;28;20042;-65
2021/10/31 00:59:22;;;;;;;12.95;5.55;;;;;;;-149.78;100.00;50553.59;4975196;28;20051;-65
2021/10/31 01:01:49;;;;;;;12.82;6.90;;;;;;;-149.78;100.00;50520.34;4972763;28;20070;-65
2021/10/31 01:04:23;;;;;;;15.70;7.53;;;;;;;-149.78;100.00;50528.16;4976134;28;20081;-65
2021/10/31 01:06:58;;;;;;;15.43;7.57;;;;;;;-149.78;100.00;50498.81;4975193;28;20038;-65
2021/10/31 01:09:41;;;;;;;15.82;7.95;;;;;;;-149.78;100.00;50502.75;4974819;28;20043;-65
2021/10/31 01:12:44;;;;;;;18.92;8.40;;;;;;;-149.78;100.00;50522.28;4965544;28;20118;-65
2021/10/31 01:15:47;;;;;;;18.92;8.27;;;;;;;-149.78;100.00;50526.22;4971706;28;20109;-65
2021/10/31 01:18:41;;;;;;;;;;;;;;;-149.78;100.00;50537.94;4974101;28;20031;-65
2021/10/31 01:21:12;;;;;;;17.35;8.73;;;;;;;-149.78;100.00;50516.44;4975101;28;19920;-65
2021/10/31 01:23:56;;;;;;;24.40;9.25;;;;;;;-149.78;100.00;50557.50;4981115;28;20027;-65
2021/10/31 01:26:38;;;;;;;20.65;9.38;;;;;;;-149.78;100.00;50557.50;4982199;28;20509;-65
2021/10/31 01:29:40;;;;;;;27.08;9.43;;;;;;;-149.78;100.00;50526.22;4970575;28;20486;-65
2021/10/31 01:32:19;;;;;;;20.45;9.20;;;;;;;-149.78;100.00;50541.84;4962750;28;20034;-65
2021/10/31 01:34:58;;;;;;;27.65;9.82;;;;;;;-149.78;100.00;50553.59;4975810;28;20402;-65
2021/10/31 01:37:29;;;;;;;24.13;9.85;;;;;;;-149.78;100.00;50516.44;4969728;28;20026;-65
2021/10/31 01:40:24;;;;;;;23.23;10.43;;;;;;;-149.78;100.00;50541.84;4974846;28;20037;-65
2021/10/31 01:42:56;;;;;;;23.80;10.32;;;;;;;-149.78;100.00;50537.94;4958192;28;20058;-65
2021/10/31 01:45:39;;;;;;;27.00;8.93;;;;;;;-149.78;100.00;50545.75;4971673;28;20431;-65
2021/10/31 01:48:23;;;;;;;26.40;9.15;;;;;;;-149.78;100.00;50522.28;4975308;28;20085;-65
2021/10/31 01:50:55;;;;;;;24.10;8.35;;;;;;;-149.78;100.00;50526.22;4972206;28;20383;-65
2021/10/31 01:53:43;;;;;;;16.55;7.55;;;;;;;-149.78;100.00;50569.22;4959654;28;20432;-65
2021/10/31 01:56:14;;;;;;;18.48;8.77;;;;;;;-149.78;100.00;50545.75;4975941;28;20039;-65
2021/10/31 01:58:46;;;;;;;17.13;7.70;;;;;;;-149.78;100.00;50549.69;4975674;28;20031;-65
2021/10/31 02:01:15;;;;;;;20.35;8.10;;;;;;;-149.78;100.00;50512.50;4972997;28;20029;-66
2021/10/31 02:03:42;;;;;;;17.80;7.97;;;;;;;-149.78;100.00;50575.09;4971536;28;20522;-66
2021/10/31 02:06:10;;;;;;;18.15;7.68;;;;;;;-149.78;100.00;50555.53;4974260;28;20046;-66
2021/10/31 02:08:38;;;;;;;16.85;7.53;;;;;;;-149.78;100.00;50494.91;4962546;28;20039;-66
2021/10/31 02:11:06;;;;;;;22.83;8.23;;;;;;;-149.78;100.00;50522.28;4975145;28;20058;-66
2021/10/31 02:13:33;;;;;;;17.45;6.95;;;;;;;-149.78;100.00;50522.28;4974567;28;20089;-66
2021/10/31 02:16:00;;;;;;;20.65;7.55;;;;;;;-149.78;100.00;50514.47;4975354;28;20117;-66
2021/10/31 02:18:27;;;;;;;15.50;6.15;;;;;;;-149.78;100.00;50545.75;4972301;28;20038;-66
2021/10/31 02:20:56;;;;;;;20.23;6.05;;;;;;;-149.78;100.00;50534.03;4974911;28;20043;-66
2021/10/31 02:23:23;;;;;;;16.52;5.75;;;;;;;-149.78;100.00;50557.50;4974954;28;20031;-66
2021/10/31 02:25:49;;;;;;;18.45;6.10;;;;;;;-149.78;100.00;50537.94;4974338;28;20505;-66
2021/10/31 02:28:15;;;;;;;14.93;6.43;;;;;;;-149.78;100.00;50510.56;4974513;28;20043;-66
2021/10/31 02:30:41;;;;;;;16.10;5.93;;;;;;;-149.78;100.00;50545.75;4974880;28;20386;-66
2021/10/31 02:33:07;;;;;;;17.17;6.13;;;;;;;-149.78;100.00;50569.22;4972568;28;20432;-66
2021/10/31 02:35:33;;;;;;;18.23;5.93;;;;;;;-149.78;100.00;50532.06;4971464;28;20403;-66
2021/10/31 02:37:59;;;;;;;14.18;5.43;;;;;;;-149.78;100.00;50522.28;4974263;28;20122;-66
2021/10/31 02:40:25;;;;;;;16.63;5.78;;;;;;;-149.78;100.00;50545.75;4971699;28;20122;-65
2021/10/31 02:42:51;;;;;;;11.68;5.57;;;;;;;-149.78;100.00;50506.66;4974328;28;20090;-65
2021/10/31 02:45:18;;;;;;;13.82;4.78;;;;;;;-149.78;100.00;50535.97;4974772;28;20533;-65
2021/10/31 02:48:17;;;;;;;10.68;4.70;;;;;;;-149.78;100.00;50534.03;4974219;28;20094;-65
2021/10/31 02:50:45;;;;;;;11.68;4.65;;;;;;;-149.78;100.00;50545.75;4971458;28;20101;-65
2021/10/31 02:53:37;;;;;;;10.73;4.40;;;;;;;-149.78;100.00;50545.75;4973013;28;20034;-65
2021/10/31 02:56:13;;;;;;;8.13;3.67;;;;;;;-149.78;100.00;50573.16;4971989;28;20123;-65
2021/10/31 02:58:48;;;;;;;10.00;4.53;;;;;;;-149.78;100.00;50526.22;4972329;28;20046;-66
2021/10/31 03:01:16;;;;;;;17.88;4.97;;;;;;;-149.78;100.00;50526.22;4973378;28;20046;-66
2021/10/31 03:03:42;;;;;;;11.13;5.18;;;;;;;-149.78;100.00;50537.94;4970152;28;20038;-66
2021/10/31 03:06:11;;;;;;;11.98;5.18;;;;;;;-149.78;100.00;50551.63;4969080;28;20093;-66
2021/10/31 03:08:37;;;;;;;12.15;5.32;;;;;;;-149.78;100.00;50549.69;4972735;28;20046;-66
2021/10/31 03:11:08;;;;;;;18.95;5.60;;;;;;;-149.78;100.00;50557.50;4973171;28;20162;-66
2021/10/31 03:13:35;;;;;;;13.10;6.22;;;;;;;-149.78;100.00;50573.16;4973807;28;20034;-66
2021/10/31 03:16:01;;;;;;;14.32;6.75;;;;;;;-149.78;100.00;50549.69;4974047;28;20058;-66
2021/10/31 03:18:28;;;;;;;17.58;6.60;;;;;;;-149.78;100.00;50532.06;4972153;28;20035;-66
2021/10/31 03:20:55;;;;;;;13.00;6.50;;;;;;;-149.78;100.00;50569.22;4970208;28;20039;-66
2021/10/31 03:23:20;;;;;;;16.17;5.95;;;;;;;-149.78;100.00;50506.66;4973656;28;20041;-66
2021/10/31 03:25:46;;;;;;;12.02;5.10;;;;;;;-149.78;100.00;50520.34;4974029;28;20062;-66
2021/10/31 03:28:12;;;;;;;14.43;5.53;;;;;;;-149.78;100.00;50530.13;4972648;28;20039;-66
2021/10/31 03:30:38;;;;;;;13.77;5.28;;;;;;;-149.78;100.00;50559.47;4973617;28;20047;-66
2021/10/31 03:33:04;;;;;;;19.33;6.03;;;;;;;-149.78;100.00;50524.25;4973423;28;20034;-66
2021/10/31 03:35:30;;;;;;;17.60;5.13;;;;;;;-149.78;100.00;50545.75;4972461;28;20035;-66
2021/10/31 03:37:56;;;;;;;13.52;4.10;;;;;;;-149.78;100.00;50498.81;4965606;28;20034;-66
2021/10/31 03:40:21;;;;;;;8.25;3.85;;;;;;;-149.78;100.00;50518.38;4970686;28;20355;-66
2021/10/31 03:42:47;;;;;;;8.20;4.00;;;;;;;-149.78;100.00;50528.16;4967356;28;20054;-66
2021/10/31 03:45:13;;;;;;;12.25;5.05;;;;;;;-149.78;100.00;50577.06;4984699;28;20042;-66
2021/10/31 03:47:46;;;;;;;9.57;3.40;;;;;;;-149.78;100.00;50557.50;4973843;28;20043;-66
2021/10/31 03:50:12;;;;;;;15.73;4.22;;;;;;;-149.78;100.00;50502.75;4963732;28;20391;-66
2021/10/31 03:52:38;;;;;;;9.30;3.58;;;;;;;-149.78;100.00;50579.00;4971712;28;20467;-65
2021/10/31 03:55:04;;;;;;;8.73;3.03;;;;;;;-149.78;100.00;50553.59;4980772;28;20090;-65
2021/10/31 03:57:30;;;;;;;10.55;3.90;;;;;;;-149.78;100.00;50547.72;4974916;28;20035;-66
2021/10/31 03:59:55;;;;;;;8.27;3.22;;;;;;;-149.78;100.00;50545.75;4974154;28;20049;-66
2021/10/31 04:02:21;;;;;;;7.22;3.92;;;;;;;-149.78;100.00;50569.22;4973772;28;20121;-66
2021/10/31 04:04:47;;;;;;;7.47;3.25;;;;;;;-149.78;100.00;50537.94;4972941;28;20038;-66
2021/10/31 04:07:12;;;;;;;7.30;3.47;;;;;;;-149.78;100.00;50553.59;4973756;28;20607;-66
2021/10/31 04:09:38;;;;;;;14.98;4.20;;;;;;;-149.78;100.00;50514.47;4972558;28;22924;-66
2021/10/31 04:12:05;;;;;;;10.63;4.22;;;;;;;-149.78;100.00;50504.69;4973325;28;20035;-66
2021/10/31 04:14:31;;;;;;;17.05;4.78;;;;;;;-149.78;100.00;50506.66;4973704;28;20054;-66
2021/10/31 04:16:57;;;;;;;10.23;4.40;;;;;;;-149.78;100.00;50543.81;4971982;28;20057;-66
2021/10/31 04:19:23;;;;;;;12.27;4.55;;;;;;;-149.78;100.00;50549.69;4962843;28;20154;-66
2021/10/31 04:21:48;;;;;;;13.38;4.18;;;;;;;-149.78;100.00;50549.69;4969217;28;20042;-66
2021/10/31 04:24:14;;;;;;;14.05;4.90;;;;;;;-149.78;100.00;50541.84;4956738;28;20043;-66
2021/10/31 04:26:40;;;;;;;11.23;4.20;;;;;;;-149.78;100.00;50534.03;4970949;28;20049;-65
2021/10/31 04:29:05;;;;;;;11.48;4.45;;;;;;;-149.78;100.00;50534.03;4969790;28;20038;-65
2021/10/31 04:31:31;;;;;;;11.95;4.03;;;;;;;-149.78;100.00;50522.28;4973537;28;20058;-65
2021/10/31 04:33:56;;;;;;;13.00;3.60;;;;;;;-149.78;100.00;50541.84;4973493;28;20113;-65
2021/10/31 04:36:22;;;;;;;11.52;4.18;;;;;;;-149.78;100.00;50573.16;4976826;28;20046;-65
2021/10/31 04:38:53;;;;;;;9.32;3.30;;;;;;;-149.78;100.00;50553.59;4972905;28;20111;-66
2021/10/31 04:41:19;;;;;;;11.48;3.70;;;;;;;-149.78;100.00;50547.72;4977029;28;20455;-66
2021/10/31 04:43:44;;;;;;;7.65;2.97;;;;;;;-149.78;100.00;50530.13;4975859;28;20125;-66
2021/10/31 04:46:10;;;;;;;11.70;3.05;;;;;;;-149.78;100.00;50577.06;4976872;28;20394;-66
2021/10/31 04:48:36;;;;;;;4.47;2.83;;;;;;;-149.78;100.00;50545.75;4975570;28;20038;-66
2021/10/31 04:51:02;;;;;;;7.18;2.58;;;;;;;-149.78;100.00;50526.22;4978380;28;20042;-66
2021/10/31 04:53:27;;;;;;;10.07;2.60;;;;;;;-149.78;100.00;50530.13;4976659;28;20625;-66
2021/10/31 04:55:53;;;;;;;9.82;2.90;;;;;;;-149.78;100.00;50541.84;4974487;28;20058;-65
2021/10/31 04:58:19;;;;;;;10.15;3.03;;;;;;;-149.78;100.00;50518.38;4978929;28;20074;-65
2021/10/31 05:00:44;;;;;;;5.05;2.00;;;;;;;-149.78;100.00;50549.69;4976825;28;20051;-65
2021/10/31 05:03:10;;;;;;;7.32;2.30;;;;;;;-149.78;100.00;50549.69;4975506;28;20034;-65
2021/10/31 05:05:36;;;;;;;9.60;2.13;;;;;;;-149.78;100.00;50530.13;4970560;28;20054;-65
2021/10/31 05:08:02;;;;;;;10.82;2.30;;;;;;;-149.78;100.00;50534.03;4975770;28;20043;-66
2021/10/31 05:10:28;;;;;;;5.05;2.17;;;;;;;-149.78;100.00;50502.75;4975050;28;20039;-66
2021/10/31 05:12:54;;;;;;;5.75;2.58;;;;;;;-149.78;100.00;50532.06;4974704;28;20054;-66
2021/10/31 05:15:20;;;;;;;5.82;1.83;;;;;;;-149.78;100.00;50537.94;4974202;28;20062;-66
2021/10/31 05:17:46;;;;;;;4.78;2.22;;;;;;;-149.78;100.00;50502.75;4975474;28;20118;-66
2021/10/31 05:20:13;;;;;;;9.20;2.33;;;;;;;-149.78;100.00;50534.03;4976013;28;20122;-66
2021/10/31 05:22:39;;;;;;;9.73;2.30;;;;;;;-149.78;100.00;50518.38;4975555;28;20049;-66
2021/10/31 05:25:06;;;;;;;16.15;2.45;;;;;;;-149.78;100.00;50518.38;4976175;28;20515;-66
2021/10/31 05:27:33;;;;;;;7.10;1.90;;;;;;;-149.78;100.00;50534.03;4974349;28;20082;-63
2021/10/31 05:29:59;;;;;;;6.22;2.30;;;;;;;-149.78;100.00;50534.03;4975725;28;20069;-63
2021/10/31 05:32:31;;;;;;;6.55;2.58;;;;;;;-149.78;100.00;50534.03;4975677;28;20062;-63
2021/10/31 05:34:57;;;;;;;8.10;2.30;;;;;;;-149.78;100.00;50504.69;4959773;28;20039;-65
2021/10/31 05:37:29;;;;;;;10.40;2.22;;;;;;;-149.78;100.00;50516.44;4975446;28;20066;-66
2021/10/31 05:39:54;;;;;;;5.65;2.10;;;;;;;-149.78;100.00;50514.47;4966973;28;20043;-65
2021/10/31 05:42:20;;;;;;;10.90;2.53;;;;;;;-149.78;100.00;50502.75;4968742;28;20042;-65
2021/10/31 05:44:46;;;;;;;11.57;2.22;;;;;;;-149.78;100.00;50545.75;4963337;28;20030;-65
2021/10/31 05:47:11;;;;;;;9.07;2.63;;;;;;;-149.78;100.00;50506.66;4965119;28;20050;-65
2021/10/31 05:49:37;;;;;;;8.95;2.33;;;;;;;-149.78;100.00;50498.81;4967682;28;20042;-65
2021/10/31 05:52:05;;;;;;;8.50;2.42;;;;;;;-149.78;100.00;50522.28;4969289;28;20046;-65
2021/10/31 05:54:30;;;;;;;14.05;2.92;;;;;;;-149.78;100.00;50520.34;4969259;28;20035;-66
2021/10/31 05:56:56;;;;;;;6.38;2.65;;;;;;;-149.78;100.00;50514.47;4970670;28;20035;-66
2021/10/31 05:59:21;;;;;;;8.20;2.95;;;;;;;-149.78;100.00;50498.81;4975459;28;20038;-66
2021/10/31 06:01:47;;;;;;;11.05;2.88;;;;;;;-149.78;100.00;50537.94;4974048;28;20039;-66
2021/10/31 06:04:12;;;;;;;9.43;2.60;;;;;;;-149.78;100.00;50534.03;4969652;28;20035;-66
2021/10/31 06:06:39;;;;;;;16.52;2.90;;;;;;;-149.78;100.00;50535.97;4969669;28;20042;-66
2021/10/31 06:09:04;;;;;;;12.25;2.95;;;;;;;-149.78;100.00;50510.56;4971826;28;20537;-66
2021/10/31 06:11:30;;;;;;;9.82;2.95;;;;;;;-149.78;100.00;50502.75;4974278;28;20478;-66
2021/10/31 06:13:56;;;;;;;25.75;3.83;;;;;;;-149.78;100.00;50491.00;4972217;28;20046;-66
2021/10/31 06:16:22;;;;;;;10.95;2.90;;;;;;;-149.78;100.00;50506.66;4974028;28;20137;-66
2021/10/31 06:18:47;;;;;;;12.93;2.92;;;;;;;-149.78;100.00;50518.38;4969908;28;20121;-66
2021/10/31 06:21:13;;;;;;;10.18;3.33;;;;;;;-149.78;100.00;50492.97;4969411;28;20486;-66
2021/10/31 06:23:38;;;;;;;9.88;3.08;;;;;;;-149.78;100.00;50506.66;4969130;28;20051;-66
2021/10/31 06:26:05;;;;;;;14.77;3.35;;;;;;;-149.78;100.00;50530.13;4974295;28;20027;-66
2021/10/31 06:28:30;;;;;;;10.90;2.88;;;;;;;-149.78;100.00;50514.47;4972497;28;20178;-64
2021/10/31 06:30:57;;;;;;;19.60;3.58;;;;;;;-149.78;100.00;50498.81;4973302;28;20050;-64
2021/10/31 06:33:22;;;;;;;8.63;2.78;;;;;;;-149.78;100.00;50498.81;4973413;28;20109;-65
2021/10/31 06:35:48;;;;;;;16.73;3.92;;;;;;;-149.78;100.00;50524.25;4970640;28;21661;-64
2021/10/31 06:38:15;;;;;;;10.35;3.35;;;;;;;-149.78;100.00;50502.75;4977477;28;20026;-65
2021/10/31 06:40:40;;;;;;;11.48;3.00;;;;;;;-149.78;100.00;50494.91;4968721;28;20038;-65
2021/10/31 06:43:06;;;;;;;7.53;3.00;;;;;;;-149.78;100.00;50500.78;4972512;28;20364;-65
2021/10/31 06:45:31;;;;;;;14.13;3.45;;;;;;;-149.78;100.00;50522.28;4972514;28;20458;-65
2021/10/31 06:47:57;;;;;;;9.32;3.33;;;;;;;-149.78;100.00;50487.09;4974399;28;20035;-65
2021/10/31 06:50:23;;;;;;;12.35;3.00;;;;;;;-149.78;100.00;50522.28;4974537;28;20041;-65
2021/10/31 06:52:50;;;;;;;15.07;3.83;;;;;;;-149.78;100.00;50526.22;4967065;28;21568;-65
2021/10/31 06:55:16;;;;;;;13.82;4.00;;;;;;;-149.78;100.00;50514.47;4971592;28;20067;-65
2021/10/31 06:57:42;;;;;;;13.23;3.97;;;;;;;-149.78;100.00;50518.38;4962759;28;20439;-65
2021/10/31 07:00:08;;;;;;;12.02;3.92;;;;;;;-149.78;100.00;50483.19;4956715;28;20033;-65
2021/10/31 07:02:34;;;;;;;14.77;4.82;;;;;;;-149.78;100.00;50510.56;4960067;28;20063;-65
2021/10/31 07:04:59;;;;;;;13.95;4.63;;;;;;;-149.78;100.00;50541.84;4964509;28;20098;-65
2021/10/31 07:07:25;;;;;;;25.85;4.78;;;;;;;-149.78;100.00;50522.28;4960014;28;20031;-65
2021/10/31 07:09:51;;;;;;;11.77;4.30;;;;;;;-149.78;100.00;50526.22;4957962;28;20020;-65
2021/10/31 07:12:17;;;;;;;14.00;4.72;;;;;;;-149.78;100.00;50541.84;4957414;28;20058;-65
2021/10/31 07:14:43;;;;;;;13.85;5.50;;;;;;;-149.78;100.00;50514.47;4958494;28;20058;-65
2021/10/31 07:17:08;;;;;;;11.00;4.82;;;;;;;-149.78;100.00;50512.50;4956070;28;20126;-65
2021/10/31 07:19:34;;;;;;;13.23;5.15;;;;;;;-149.78;100.00;50510.56;4958348;28;20027;-64
2021/10/31 07:22:00;;;;;;;14.18;4.78;;;;;;;-149.78;100.00;50496.88;4961964;28;20390;-65
2021/10/31 07:24:26;;;;;;;12.73;5.50;;;;;;;-149.78;100.00;50518.38;4959807;28;20050;-65
2021/10/31 07:26:52;;;;;;;18.10;6.35;;;;;;;-149.78;100.00;50534.03;4958197;28;20038;-65
2021/10/31 07:29:18;;;;;;;12.60;5.55;;;;;;;-149.78;100.00;50506.66;4961747;28;20035;-65
2021/10/31 07:31:46;;;;;;;18.02;5.28;;;;;;;-149.78;100.00;50534.03;4963920;28;20045;-65
2021/10/31 07:34:12;;;;;;;14.55;5.22;;;;;;;-149.78;100.00;50510.56;4972762;28;20046;-65
2021/10/31 07:36:39;;;;;;;14.57;5.18;;;;;;;-149.78;100.00;50520.34;4958323;28;20066;-65
2021/10/31 07:39:05;;;;;;;11.27;4.88;;;;;;;-149.78;100.00;50502.75;4960378;28;20031;-65
2021/10/31 07:41:31;;;;;;;13.65;4.85;;;;;;;-149.78;100.00;50528.16;4963451;28;20054;-65
2021/10/31 07:43:57;;;;;;;14.27;5.47;;;;;;;-149.78;100.00;50492.97;4965321;28;20039;-65
2021/10/31 07:46:22;;;;;;;9.75;5.28;;;;;;;-149.78;100.00;50522.28;4963003;28;20055;-65
2021/10/31 07:48:48;;;;;;;14.68;5.30;;;;;;;-149.78;100.00;50485.13;4960735;28;20051;-65
2021/10/31 07:51:14;;;;;;;12.93;5.10;;;;;;;-149.78;100.00;50514.47;4959446;28;20035;-64
2021/10/31 07:53:42;;;;;;;9.40;4.55;;;;;;;-149.78;100.00;50520.34;4973118;28;20101;-65
2021/10/31 07:56:12;;;;;;;10.15;4.70;;;;;;;-149.78;100.00;50510.56;4961534;28;20031;-66
2021/10/31 07:58:38;;;;;;;8.55;4.68;;;;;;;-149.78;100.00;50502.75;4961844;28;20054;-66
2021/10/31 08:01:04;;;;;;;13.75;4.90;;;;;;;-149.78;100.00;50498.81;4960466;28;20043;-65
2021/10/31 08:03:30;;;;;;;9.98;4.78;;;;;;;-149.78;100.00;50506.66;4963103;28;20082;-65
2021/10/31 08:05:56;;;;;;;14.75;5.40;;;;;;;-149.78;100.00;50481.22;4962136;28;20023;-67
2021/10/31 08:08:25;;;;;;;12.30;4.20;;;;;;;-149.78;100.00;50471.44;4964563;28;20426;-66
2021/10/31 08:10:51;;;;;;;9.02;4.72;;;;;;;-149.78;100.00;50475.34;4958754;28;20039;-67
2021/10/31 08:13:26;;;;;;;9.98;4.30;;;;;;;-149.78;100.00;50534.03;4963487;28;20502;-67
2021/10/31 08:15:52;;;;;;;9.30;4.63;;;;;;;-149.78;100.00;50491.00;4963346;28;20098;-66
2021/10/31 08:18:18;;;;;;;8.90;3.90;;;;;;;-149.78;100.00;50498.81;4960461;28;20027;-69
2021/10/31 08:20:44;;;;;;;10.00;4.10;;;;;;;-149.78;100.00;50524.25;4971577;28;20130;-66
2021/10/31 08:23:11;;;;;;;7.70;4.50;;;;;;;-149.78;100.00;50487.09;4975191;28;20035;-68
2021/10/31 08:25:38;;;;;;;12.95;4.15;;;;;;;-149.78;100.00;50498.81;4969639;28;20045;-65
2021/10/31 08:28:07;;;;;;;7.57;4.68;;;;;;;-149.78;100.00;50479.28;4964390;28;20039;-62
2021/10/31 08:30:33;;;;;;;10.93;4.30;;;;;;;-149.78;100.00;50494.91;4963502;28;20042;-62
2021/10/31 08:33:08;;;;;;;8.80;4.38;;;;;;;-149.78;100.00;50463.63;4966025;28;20043;-62
2021/10/31 08:35:34;;;;;;;9.90;3.75;;;;;;;-149.78;100.00;50510.56;4961923;28;20090;-63
2021/10/31 08:38:02;;;;;;;9.13;4.13;;;;;;;-149.78;100.00;50483.19;4980593;28;20026;-63
2021/10/31 08:40:28;;;;;;;6.43;4.15;;;;;;;-149.78;100.00;50494.91;4959977;28;20034;-63
2021/10/31 08:42:55;;;;;;;12.80;4.50;;;;;;;-149.78;100.00;50532.06;4966410;28;20031;-63
2021/10/31 08:45:22;;;;;;;7.97;3.90;;;;;;;-149.78;100.00;50491.00;4966369;28;20031;-63
2021/10/31 08:47:47;;;;;;;11.25;3.97;;;;;;;-149.78;100.00;50471.44;4960053;28;20058;-63
2021/10/31 08:50:13;;;;;;;6.45;3.65;;;;;;;-149.78;100.00;50518.38;4962308;28;20043;-62
2021/10/31 08:52:39;;;;;;;10.00;3.78;;;;;;;-149.78;100.00;50467.53;4963436;28;20134;-63
2021/10/31 08:55:08;;;;;;;9.50;3.33;;;;;;;-149.78;100.00;50479.28;4964470;28;20038;-64
2021/10/31 08:57:34;;;;;;;7.60;3.30;;;;;;;-149.78;100.00;50518.38;4967284;28;20094;-63
2021/10/31 09:00:00;;;;;;;7.95;3.53;;;;;;;-149.78;100.00;50483.19;4960562;28;20031;-64
2021/10/31 09:02:27;;;;;;;7.65;3.42;;;;;;;-149.78;100.00;50494.91;4958918;28;20031;-64
2021/10/31 09:04:53;;;;;;;6.65;3.30;;;;;;;-149.78;100.00;50524.25;4962356;28;20038;-64
2021/10/31 09:07:18;;;;;;;7.20;3.58;;;;;;;-149.78;100.00;50549.69;4967270;28;20074;-64
2021/10/31 09:09:44;;;;;;;5.45;2.90;;;;;;;-149.78;100.00;50491.00;4958057;28;22028;-65
2021/10/31 09:12:12;;;;;;;5.70;3.00;;;;;;;-149.78;100.00;50471.44;4962343;28;20117;-65
2021/10/31 09:14:39;;;;;;;7.93;3.65;;;;;;;-149.78;100.00;50496.88;4961351;28;20097;-65
2021/10/31 09:17:05;;;;;;;7.20;2.78;;;;;;;-149.78;100.00;50500.78;4972645;28;20047;-65
2021/10/31 09:19:30;;;;;;;5.80;2.95;;;;;;;-149.78;100.00;50467.53;4963318;28;20035;-64
2021/10/31 09:21:56;;;;;;;8.35;2.75;;;;;;;-149.78;100.00;50473.41;4963879;28;20356;-66
2021/10/31 09:24:21;;;;;;;7.00;3.20;;;;;;;-149.78;100.00;50498.81;4968549;28;20034;-64
2021/10/31 09:26:47;;;;;;;6.70;3.50;;;;;;;-149.78;100.00;50483.19;4963957;28;20041;-64
2021/10/31 09:29:13;;;;;;;5.82;3.22;;;;;;;-149.78;100.00;50494.91;4966693;28;20043;-65
2021/10/31 09:31:39;;;;;;;7.38;2.75;;;;;;;-149.78;100.00;50487.09;4956600;28;20492;-66
2021/10/31 09:34:05;;;;;;;4.82;1.90;;;;;;;-149.78;100.00;50463.63;4960623;28;20114;-66
2021/10/31 09:36:35;;;;;;;7.22;2.17;;;;;;;-149.78;100.00;50479.28;4963228;28;20112;-66
2021/10/31 09:39:07;;;;;;;5.13;1.63;;;;;;;-149.78;100.00;50491.00;4962476;28;20034;-67
2021/10/31 09:41:33;;;;;;;2.45;1.77;;;;;;;-149.78;100.00;50506.66;4962207;28;21465;-66
2021/10/31 09:44:10;;;;;;;5.43;1.75;;;;;;;-149.78;100.00;50455.81;4961855;28;20058;-64
2021/10/31 09:46:36;;;;;;;2.95;1.73;;;;;;;-149.78;100.00;50463.63;4969846;28;20053;-63
2021/10/31 09:49:03;;;;;;;2.35;1.60;;;;;;;-149.78;100.00;50471.44;4958741;28;20031;-64
2021/10/31 09:51:29;;;;;;;2.00;1.67;;;;;;;-149.78;100.00;50465.56;4959597;28;20043;-64
2021/10/31 09:53:59;;;;;;;6.15;1.67;;;;;;;-149.78;100.00;50491.00;4964908;28;20057;-64
2021/10/31 09:56:25;;;;;;;4.03;1.95;;;;;;;-149.78;100.00;50487.09;4964569;28;20097;-64
2021/10/31 09:58:53;;;;;;;3.70;2.05;;;;;;;-149.78;100.00;50514.47;4961185;28;20495;-64
2021/10/31 10:01:50;;;;;;;4.93;1.80;;;;;;;-149.78;100.00;50514.47;4959558;28;20114;-64
2021/10/31 10:04:33;;;;;;;4.90;1.70;;;;;;;-149.78;100.00;50467.53;4965746;28;20031;-64
2021/10/31 10:07:03;;;;;;;4.47;1.85;;;;;;;-149.78;100.00;50479.28;4966714;28;20117;-64
2021/10/31 10:09:30;;;;;;;4.00;1.63;;;;;;;-149.78;100.00;50471.44;4967735;28;20028;-64
2021/10/31 10:12:10;;;;;;;2.53;1.40;;;;;;;-149.78;100.00;50518.38;4965573;28;20062;-64
2021/10/31 10:14:37;;;;;;;1.98;1.33;;;;;;;-149.78;100.00;50491.00;4961296;28;20051;-64
2021/10/31 10:17:06;;;;;;;3.60;1.33;;;;;;;-149.78;100.00;50465.56;4963509;28;20143;-64
2021/10/31 10:19:35;;;;;;;3.13;1.40;;;;;;;-149.78;100.00;50502.75;4957119;28;20042;-64
2021/10/31 10:22:03;;;;;;;2.75;1.33;;;;;;;-149.78;100.00;50471.44;4961072;28;20057;-64
2021/10/31 10:24:32;;;;;;;2.38;1.30;;;;;;;-149.78;100.00;50471.44;4963568;28;20086;-64
2021/10/31 10:27:03;;;;;;;1.60;1.20;;;;;;;-149.78;100.00;50467.53;4963368;28;20046;-64
2021/10/31 10:29:38;;;;;;;1.50;1.08;;;;;;;-149.78;100.00;50500.78;4958014;28;20043;-64
2021/10/31 10:32:13;;;;;;;4.75;1.30;;;;;;;-149.78;100.00;50494.91;4959004;28;20122;-64
2021/10/31 10:34:49;;;;;;;2.67;0.90;;;;;;;-149.78;100.00;50510.56;4961311;28;20486;-64
2021/10/31 10:37:30;;;;;;;1.00;0.77;;;;;;;-149.78;100.00;50506.66;4962622;28;20035;-64
2021/10/31 10:39:59;;;;;;;1.35;1.00;;;;;;;-149.78;100.00;50522.28;4965446;28;20535;-64
2021/10/31 10:42:27;;;;;;;4.28;1.17;;;;;;;-149.78;100.00;50477.31;4961033;28;20057;-64
2021/10/31 10:44:55;;;;;;;3.13;1.30;;;;;;;-149.78;100.00;50522.28;4961982;28;20027;-64
2021/10/31 10:47:22;;;;;;;1.23;0.80;;;;;;;-149.78;100.00;50526.22;4962584;28;20029;-64
2021/10/31 10:49:50;;;;;;;2.13;1.20;;;;;;;-149.78;100.00;50494.91;4959150;28;20035;-64
2021/10/31 10:52:23;;;;;;;2.35;1.30;;;;;;;-149.78;100.00;50512.50;4957096;28;20050;-64
2021/10/31 10:54:56;;;;;;;1.42;0.88;;;;;;;-149.78;100.00;50537.94;4963672;28;20086;-64
2021/10/31 10:57:23;;;;;;;12.73;1.00;;;;;;;-149.78;100.00;50506.66;4960752;28;20046;-64
2021/10/31 10:59:54;;;;;;;2.15;0.80;;;;;;;-149.78;100.00;50498.81;4960285;28;20039;-64
2021/10/31 11:02:21;;;;;;;3.10;0.70;;;;;;;-149.78;100.00;50508.59;4957748;28;20086;-64
2021/10/31 11:04:52;;;;;;;1.90;0.60;;;;;;;-149.78;100.00;50483.19;4959332;28;20034;-64
2021/10/31 11:07:28;;;;;;;1.83;0.50;;;;;;;-149.78;100.00;50487.09;4960254;28;20038;-64
2021/10/31 11:09:53;;;;;;;1.67;1.17;;;;;;;-149.78;100.00;50534.03;4959535;28;20031;-64